createdAt,value
2017-03-11T00:00:20.868Z,1020.84
2017-03-11T00:01:01.582Z,1020.79
2017-03-11T00:01:42.301Z,1020.83
2017-03-11T00:02:22.902Z,1020.81
2017-03-11T00:03:03.628Z,1020.82
2017-03-11T00:03:44.438Z,1020.85
2017-03-11T00:04:25.116Z,1020.86
2017-03-11T00:05:05.714Z,1020.85
2017-03-11T00:05:46.373Z,1020.84
2017-03-11T00:06:27.003Z,1020.82
2017-03-11T00:07:07.738Z,1020.79
2017-03-11T00:07:48.466Z,1020.79
2017-03-11T00:08:29.107Z,1020.78
2017-03-11T00:09:09.812Z,1020.79
2017-03-11T00:09:50.430Z,1020.76
2017-03-11T00:10:31.080Z,1020.79
2017-03-11T00:11:11.715Z,1020.82
2017-03-11T00:11:52.376Z,1020.86
2017-03-11T00:12:33.049Z,1020.86
2017-03-11T00:13:13.677Z,1020.84
2017-03-11T00:13:54.327Z,1020.85
2017-03-11T00:14:35.010Z,1020.84
2017-03-11T00:15:15.675Z,1020.86
2017-03-11T00:15:56.479Z,1020.8
2017-03-11T00:16:37.010Z,1020.83
2017-03-11T00:17:17.692Z,1020.82
2017-03-11T00:17:58.455Z,1020.79
2017-03-11T00:18:39.143Z,1020.8
2017-03-11T00:19:20.030Z,1020.79
2017-03-11T00:20:00.798Z,1020.84
2017-03-11T00:20:41.447Z,1020.87
2017-03-11T00:21:22.306Z,1020.83
2017-03-11T00:22:03.045Z,1020.83
2017-03-11T00:22:43.756Z,1020.86
2017-03-11T00:23:24.343Z,1020.83
2017-03-11T00:24:05.259Z,1020.83
2017-03-11T00:24:45.951Z,1020.84
2017-03-11T00:25:26.722Z,1020.85
2017-03-11T00:26:07.430Z,1020.84
2017-03-11T00:26:48.142Z,1020.83
2017-03-11T00:27:28.807Z,1020.81
2017-03-11T00:28:09.638Z,1020.81
2017-03-11T00:28:50.425Z,1020.79
2017-03-11T00:29:31.114Z,1020.82
2017-03-11T00:30:11.818Z,1020.83
2017-03-11T00:30:52.539Z,1020.8
2017-03-11T00:31:33.196Z,1020.85
2017-03-11T00:32:13.811Z,1020.78
2017-03-11T00:32:54.564Z,1020.76
2017-03-11T00:33:35.309Z,1020.81
2017-03-11T00:34:15.970Z,1020.78
2017-03-11T00:34:56.702Z,1020.77
2017-03-11T00:35:37.409Z,1020.75
2017-03-11T00:36:17.998Z,1020.77
2017-03-11T00:36:58.691Z,1020.77
2017-03-11T00:37:39.409Z,1020.77
2017-03-11T00:38:20.081Z,1020.77
2017-03-11T00:39:00.853Z,1020.83
2017-03-11T00:39:41.504Z,1020.76
2017-03-11T00:40:22.112Z,1020.75
2017-03-11T00:41:02.775Z,1020.77
2017-03-11T00:41:43.463Z,1020.77
2017-03-11T00:42:24.184Z,1020.78
2017-03-11T00:43:04.906Z,1020.79
2017-03-11T00:43:45.493Z,1020.8
2017-03-11T00:44:26.127Z,1020.79
2017-03-11T00:45:06.809Z,1020.76
2017-03-11T00:45:47.594Z,1020.79
2017-03-11T00:46:28.265Z,1020.72
2017-03-11T00:47:08.955Z,1020.75
2017-03-11T00:47:49.678Z,1020.75
2017-03-11T00:48:30.407Z,1020.77
2017-03-11T00:49:11.100Z,1020.81
2017-03-11T00:49:51.768Z,1020.79
2017-03-11T00:50:32.458Z,1020.74
2017-03-11T00:51:13.175Z,1020.7
2017-03-11T00:51:53.847Z,1020.78
2017-03-11T00:52:34.481Z,1020.75
2017-03-11T00:53:15.177Z,1020.72
2017-03-11T00:53:55.889Z,1020.79
2017-03-11T00:54:36.506Z,1020.75
2017-03-11T00:55:17.173Z,1020.78
2017-03-11T00:55:57.857Z,1020.74
2017-03-11T00:56:38.532Z,1020.76
2017-03-11T00:57:19.165Z,1020.69
2017-03-11T00:57:59.926Z,1020.74
2017-03-11T00:58:40.531Z,1020.72
2017-03-11T00:59:21.208Z,1020.75
2017-03-11T01:00:01.907Z,1020.74
2017-03-11T01:00:42.631Z,1020.72
2017-03-11T01:01:23.367Z,1020.72
2017-03-11T01:02:04.075Z,1020.71
2017-03-11T01:02:44.674Z,1020.72
2017-03-11T01:03:25.370Z,1020.63
2017-03-11T01:04:06.040Z,1020.64
2017-03-11T01:04:46.766Z,1020.67
2017-03-11T01:05:27.394Z,1020.67
2017-03-11T01:06:08.040Z,1020.64
2017-03-11T01:06:48.774Z,1020.66
2017-03-11T01:07:29.443Z,1020.65
2017-03-11T01:08:10.133Z,1020.63
2017-03-11T01:08:50.967Z,1020.65
2017-03-11T01:09:31.615Z,1020.62
2017-03-11T01:10:12.300Z,1020.64
2017-03-11T01:10:53.137Z,1020.64
2017-03-11T01:11:33.762Z,1020.61
2017-03-11T01:12:14.605Z,1020.64
2017-03-11T01:12:55.279Z,1020.58
2017-03-11T01:13:35.948Z,1020.6
2017-03-11T01:14:16.661Z,1020.61
2017-03-11T01:14:57.422Z,1020.59
2017-03-11T01:15:38.166Z,1020.59
2017-03-11T01:16:18.777Z,1020.53
2017-03-11T01:16:59.489Z,1020.55
2017-03-11T01:17:40.156Z,1020.56
2017-03-11T01:18:20.762Z,1020.57
2017-03-11T01:19:01.519Z,1020.55
2017-03-11T01:19:42.272Z,1020.55
2017-03-11T01:20:22.976Z,1020.53
2017-03-11T01:21:03.573Z,1020.53
2017-03-11T01:21:44.209Z,1020.56
2017-03-11T01:22:24.860Z,1020.55
2017-03-11T01:23:05.575Z,1020.52
2017-03-11T01:23:46.214Z,1020.56
2017-03-11T01:24:27.051Z,1020.58
2017-03-11T01:25:07.704Z,1020.56
2017-03-11T01:25:48.408Z,1020.51
2017-03-11T01:26:29.015Z,1020.52
2017-03-11T01:27:09.755Z,1020.55
2017-03-11T01:27:50.459Z,1020.5
2017-03-11T01:28:31.126Z,1020.49
2017-03-11T01:29:11.819Z,1020.49
2017-03-11T01:29:52.570Z,1020.49
2017-03-11T01:30:33.238Z,1020.47
2017-03-11T01:31:13.887Z,1020.52
2017-03-11T01:31:54.565Z,1020.49
2017-03-11T01:32:35.261Z,1020.5
2017-03-11T01:33:15.948Z,1020.52
2017-03-11T01:33:56.819Z,1020.52
2017-03-11T01:34:37.461Z,1020.54
2017-03-11T01:35:18.165Z,1020.51
2017-03-11T01:35:58.976Z,1020.53
2017-03-11T01:36:39.679Z,1020.54
2017-03-11T01:37:20.357Z,1020.51
2017-03-11T01:38:01.019Z,1020.54
2017-03-11T01:38:41.676Z,1020.53
2017-03-11T01:39:22.319Z,1020.54
2017-03-11T01:40:03.053Z,1020.52
2017-03-11T01:40:43.716Z,1020.53
2017-03-11T01:41:24.423Z,1020.55
2017-03-11T01:42:05.111Z,1020.55
2017-03-11T01:42:45.765Z,1020.57
2017-03-11T01:43:26.435Z,1020.57
2017-03-11T01:44:07.072Z,1020.59
2017-03-11T01:44:47.756Z,1020.59
2017-03-11T01:45:28.376Z,1020.59
2017-03-11T01:46:09.008Z,1020.58
2017-03-11T01:46:49.716Z,1020.58
2017-03-11T01:47:30.441Z,1020.53
2017-03-11T01:48:11.101Z,1020.52
2017-03-11T01:48:51.730Z,1020.49
2017-03-11T01:49:32.436Z,1020.53
2017-03-11T01:50:13.084Z,1020.49
2017-03-11T01:50:53.814Z,1020.47
2017-03-11T01:51:34.426Z,1020.48
2017-03-11T01:52:15.059Z,1020.43
2017-03-11T01:52:55.798Z,1020.49
2017-03-11T01:53:36.434Z,1020.45
2017-03-11T01:54:17.085Z,1020.48
2017-03-11T01:54:57.742Z,1020.46
2017-03-11T01:55:38.401Z,1020.37
2017-03-11T01:56:19.104Z,1020.37
2017-03-11T01:56:59.748Z,1020.41
2017-03-11T01:57:40.470Z,1020.39
2017-03-11T01:58:21.251Z,1020.4
2017-03-11T01:59:01.828Z,1020.38
2017-03-11T01:59:42.537Z,1020.41
2017-03-11T02:00:23.177Z,1020.4
2017-03-11T02:01:03.852Z,1020.39
2017-03-11T02:01:44.509Z,1020.38
2017-03-11T02:02:25.223Z,1020.37
2017-03-11T02:03:05.850Z,1020.38
2017-03-11T02:03:46.466Z,1020.37
2017-03-11T02:04:27.094Z,1020.36
2017-03-11T02:05:07.792Z,1020.36
2017-03-11T02:05:48.373Z,1020.36
2017-03-11T02:06:29.025Z,1020.36
2017-03-11T02:07:09.670Z,1020.4
2017-03-11T02:07:50.398Z,1020.32
2017-03-11T02:08:31.057Z,1020.31
2017-03-11T02:09:11.709Z,1020.28
2017-03-11T02:09:52.368Z,1020.28
2017-03-11T02:10:33.001Z,1020.29
2017-03-11T02:11:13.723Z,1020.27
2017-03-11T02:11:54.389Z,1020.26
2017-03-11T02:12:35.130Z,1020.24
2017-03-11T02:13:15.864Z,1020.22
2017-03-11T02:13:56.564Z,1020.22
2017-03-11T02:14:37.195Z,1020.24
2017-03-11T02:15:17.845Z,1020.23
2017-03-11T02:15:58.502Z,1020.21
2017-03-11T02:16:39.149Z,1020.2
2017-03-11T02:17:19.784Z,1020.22
2017-03-11T02:18:00.382Z,1020.26
2017-03-11T02:18:41.012Z,1020.26
2017-03-11T02:19:21.882Z,1020.27
2017-03-11T02:20:02.513Z,1020.29
2017-03-11T02:20:43.157Z,1020.28
2017-03-11T02:21:23.787Z,1020.28
2017-03-11T02:22:04.497Z,1020.27
2017-03-11T02:22:45.119Z,1020.26
2017-03-11T02:23:25.796Z,1020.26
2017-03-11T02:24:06.470Z,1020.3
2017-03-11T02:24:47.138Z,1020.25
2017-03-11T02:25:27.823Z,1020.25
2017-03-11T02:26:08.533Z,1020.23
2017-03-11T02:26:49.258Z,1020.22
2017-03-11T02:27:29.969Z,1020.25
2017-03-11T02:28:10.593Z,1020.26
2017-03-11T02:28:51.279Z,1020.22
2017-03-11T02:29:31.958Z,1020.27
2017-03-11T02:30:12.611Z,1020.28
2017-03-11T02:30:53.267Z,1020.24
2017-03-11T02:31:33.913Z,1020.26
2017-03-11T02:32:14.532Z,1020.22
2017-03-11T02:32:55.214Z,1020.29
2017-03-11T02:33:35.893Z,1020.25
2017-03-11T02:34:16.555Z,1020.29
2017-03-11T02:34:57.184Z,1020.29
2017-03-11T02:35:37.854Z,1020.26
2017-03-11T02:36:18.539Z,1020.29
2017-03-11T02:36:59.139Z,1020.29
2017-03-11T02:37:39.803Z,1020.32
2017-03-11T02:38:20.456Z,1020.32
2017-03-11T02:39:01.148Z,1020.34
2017-03-11T02:39:41.768Z,1020.34
2017-03-11T02:40:22.396Z,1020.35
2017-03-11T02:41:03.017Z,1020.31
2017-03-11T02:41:43.684Z,1020.35
2017-03-11T02:42:24.336Z,1020.31
2017-03-11T02:43:04.985Z,1020.34
2017-03-11T02:43:45.684Z,1020.33
2017-03-11T02:44:26.321Z,1020.29
2017-03-11T02:45:06.951Z,1020.26
2017-03-11T02:45:47.586Z,1020.26
2017-03-11T02:46:28.324Z,1020.26
2017-03-11T02:47:08.919Z,1020.18
2017-03-11T02:47:49.581Z,1020.29
2017-03-11T02:48:30.235Z,1020.21
2017-03-11T02:49:10.958Z,1020.22
2017-03-11T02:49:51.611Z,1020.24
2017-03-11T02:50:32.388Z,1020.19
2017-03-11T02:51:13.016Z,1020.16
2017-03-11T02:51:53.681Z,1020.14
2017-03-11T02:52:34.350Z,1020.19
2017-03-11T02:53:15.043Z,1020.17
2017-03-11T02:53:55.665Z,1020.22
2017-03-11T02:54:36.383Z,1020.17
2017-03-11T02:55:17.094Z,1020.19
2017-03-11T02:55:58.000Z,1020.16
2017-03-11T02:56:38.964Z,1020.19
2017-03-11T02:57:19.456Z,1020.18
2017-03-11T02:58:00.113Z,1020.18
2017-03-11T02:58:40.819Z,1020.18
2017-03-11T02:59:21.484Z,1020.13
2017-03-11T03:00:02.161Z,1020.21
2017-03-11T03:00:42.902Z,1020.15
2017-03-11T03:01:23.577Z,1020.15
2017-03-11T03:02:04.280Z,1020.21
2017-03-11T03:02:44.932Z,1020.2
2017-03-11T03:03:25.589Z,1020.2
2017-03-11T03:04:06.272Z,1020.18
2017-03-11T03:04:46.938Z,1020.18
2017-03-11T03:05:27.651Z,1020.15
2017-03-11T03:06:08.337Z,1020.14
2017-03-11T03:06:49.134Z,1020.17
2017-03-11T03:07:29.883Z,1020.18
2017-03-11T03:08:10.541Z,1020.17
2017-03-11T03:08:51.241Z,1020.19
2017-03-11T03:09:31.904Z,1020.16
2017-03-11T03:10:12.515Z,1020.21
2017-03-11T03:10:53.205Z,1020.26
2017-03-11T03:11:33.846Z,1020.23
2017-03-11T03:12:14.550Z,1020.32
2017-03-11T03:12:55.205Z,1020.18
2017-03-11T03:13:35.831Z,1020.23
2017-03-11T03:14:16.517Z,1020.22
2017-03-11T03:14:57.148Z,1020.23
2017-03-11T03:15:37.780Z,1020.21
2017-03-11T03:16:18.501Z,1020.22
2017-03-11T03:16:59.124Z,1020.2
2017-03-11T03:17:39.736Z,1020.22
2017-03-11T03:18:20.374Z,1020.2
2017-03-11T03:19:01.008Z,1020.18
2017-03-11T03:19:41.707Z,1020.2
2017-03-11T03:20:22.348Z,1020.17
2017-03-11T03:21:03.073Z,1020.12
2017-03-11T03:21:43.681Z,1020.11
2017-03-11T03:22:24.337Z,1020.13
2017-03-11T03:23:05.045Z,1020.13
2017-03-11T03:23:45.761Z,1020.16
2017-03-11T03:24:26.502Z,1020.12
2017-03-11T03:25:07.166Z,1020.13
2017-03-11T03:25:47.891Z,1020.11
2017-03-11T03:26:28.555Z,1020.14
2017-03-11T03:27:09.249Z,1020.07
2017-03-11T03:27:49.852Z,1020.08
2017-03-11T03:28:30.595Z,1020.11
2017-03-11T03:29:11.188Z,1020.08
2017-03-11T03:29:51.821Z,1020.08
2017-03-11T03:30:32.491Z,1020.06
2017-03-11T03:31:13.134Z,1020.09
2017-03-11T03:31:53.791Z,1020.08
2017-03-11T03:32:34.444Z,1020.1
2017-03-11T03:33:15.112Z,1020.06
2017-03-11T03:33:55.744Z,1020.07
2017-03-11T03:34:36.573Z,1020.13
2017-03-11T03:35:17.203Z,1020.07
2017-03-11T03:35:57.837Z,1020.11
2017-03-11T03:36:38.503Z,1020.05
2017-03-11T03:37:19.136Z,1020.1
2017-03-11T03:37:59.791Z,1020.07
2017-03-11T03:38:40.407Z,1020.07
2017-03-11T03:39:21.094Z,1020.09
2017-03-11T03:40:01.683Z,1020.07
2017-03-11T03:40:42.309Z,1020.06
2017-03-11T03:41:22.973Z,1020.09
2017-03-11T03:42:03.633Z,1020.05
2017-03-11T03:42:44.261Z,1020.01
2017-03-11T03:43:24.995Z,1020
2017-03-11T03:44:05.652Z,1020.03
2017-03-11T03:44:46.278Z,1020
2017-03-11T03:45:26.987Z,1020.03
2017-03-11T03:46:07.665Z,1020.01
2017-03-11T03:46:48.325Z,1020.01
2017-03-11T03:47:28.999Z,1020.05
2017-03-11T03:48:09.672Z,1020.01
2017-03-11T03:48:50.368Z,1020
2017-03-11T03:49:31.011Z,1020.01
2017-03-11T03:50:11.643Z,1019.97
2017-03-11T03:50:52.271Z,1019.94
2017-03-11T03:51:32.963Z,1019.94
2017-03-11T03:52:13.610Z,1019.9
2017-03-11T03:52:54.312Z,1019.91
2017-03-11T03:53:34.989Z,1019.88
2017-03-11T03:54:15.668Z,1019.86
2017-03-11T03:54:56.357Z,1019.88
2017-03-11T03:55:37.030Z,1019.88
2017-03-11T03:56:17.674Z,1019.84
2017-03-11T03:56:58.295Z,1019.87
2017-03-11T03:57:38.945Z,1019.85
2017-03-11T03:58:19.626Z,1019.93
2017-03-11T03:59:00.281Z,1019.91
2017-03-11T03:59:40.925Z,1019.96
2017-03-11T04:00:21.584Z,1019.93
2017-03-11T04:01:02.215Z,1019.95
2017-03-11T04:01:42.882Z,1019.92
2017-03-11T04:02:23.609Z,1019.93
2017-03-11T04:03:04.307Z,1019.92
2017-03-11T04:03:44.973Z,1019.87
2017-03-11T04:04:25.673Z,1019.91
2017-03-11T04:05:06.399Z,1019.88
2017-03-11T04:05:47.074Z,1019.92
2017-03-11T04:06:27.731Z,1019.9
2017-03-11T04:07:08.386Z,1019.92
2017-03-11T04:07:49.042Z,1019.92
2017-03-11T04:08:29.706Z,1019.96
2017-03-11T04:09:10.348Z,1019.98
2017-03-11T04:09:51.051Z,1020.03
2017-03-11T04:10:31.700Z,1019.95
2017-03-11T04:11:12.349Z,1019.99
2017-03-11T04:11:52.970Z,1019.96
2017-03-11T04:12:33.635Z,1019.96
2017-03-11T04:13:14.316Z,1019.99
2017-03-11T04:13:54.979Z,1020.02
2017-03-11T04:14:35.634Z,1020.02
2017-03-11T04:15:16.272Z,1020.04
2017-03-11T04:15:56.929Z,1020.02
2017-03-11T04:16:37.595Z,1020.04
2017-03-11T04:17:18.227Z,1020.05
2017-03-11T04:17:58.902Z,1020.04
2017-03-11T04:18:39.551Z,1020.01
2017-03-11T04:19:20.304Z,1020.01
2017-03-11T04:20:00.897Z,1019.99
2017-03-11T04:20:41.593Z,1019.99
2017-03-11T04:21:22.241Z,1019.97
2017-03-11T04:22:02.913Z,1019.98
2017-03-11T04:22:43.629Z,1019.99
2017-03-11T04:23:24.216Z,1019.96
2017-03-11T04:24:04.868Z,1019.96
2017-03-11T04:24:45.499Z,1019.96
2017-03-11T04:25:26.171Z,1019.98
2017-03-11T04:26:06.907Z,1019.98
2017-03-11T04:26:47.633Z,1019.97
2017-03-11T04:27:28.352Z,1019.99
2017-03-11T04:28:08.973Z,1019.94
2017-03-11T04:28:49.618Z,1019.95
2017-03-11T04:29:30.222Z,1019.95
2017-03-11T04:30:10.922Z,1019.95
2017-03-11T04:30:51.645Z,1019.95
2017-03-11T04:31:32.345Z,1019.93
2017-03-11T04:32:12.961Z,1019.96
2017-03-11T04:32:53.621Z,1020.02
2017-03-11T04:33:34.259Z,1020.07
2017-03-11T04:34:14.960Z,1020.01
2017-03-11T04:34:55.652Z,1019.96
2017-03-11T04:35:36.308Z,1020.01
2017-03-11T04:36:16.942Z,1020.06
2017-03-11T04:36:57.596Z,1020.04
2017-03-11T04:37:38.265Z,1020.02
2017-03-11T04:38:18.904Z,1020.06
2017-03-11T04:38:59.544Z,1020.03
2017-03-11T04:39:40.361Z,1019.97
2017-03-11T04:40:20.986Z,1020.01
2017-03-11T04:41:01.603Z,1019.97
2017-03-11T04:41:42.264Z,1019.98
2017-03-11T04:42:22.921Z,1019.95
2017-03-11T04:43:03.568Z,1019.95
2017-03-11T04:43:44.218Z,1019.98
2017-03-11T04:44:24.889Z,1019.99
2017-03-11T04:45:05.559Z,1019.97
2017-03-11T04:45:46.188Z,1019.97
2017-03-11T04:46:26.823Z,1019.96
2017-03-11T04:47:07.502Z,1019.91
2017-03-11T04:47:48.138Z,1019.93
2017-03-11T04:48:28.789Z,1019.9
2017-03-11T04:49:09.511Z,1019.87
2017-03-11T04:49:50.221Z,1019.91
2017-03-11T04:50:30.873Z,1019.92
2017-03-11T04:51:11.568Z,1019.86
2017-03-11T04:51:52.245Z,1019.87
2017-03-11T04:52:32.875Z,1019.9
2017-03-11T04:53:13.540Z,1019.89
2017-03-11T04:53:54.200Z,1019.9
2017-03-11T04:54:34.938Z,1019.91
2017-03-11T04:55:15.654Z,1019.93
2017-03-11T04:55:56.304Z,1019.89
2017-03-11T04:56:36.944Z,1019.91
2017-03-11T04:57:17.596Z,1019.86
2017-03-11T04:57:58.252Z,1019.9
2017-03-11T04:58:38.921Z,1019.87
2017-03-11T04:59:19.622Z,1019.89
2017-03-11T05:00:00.288Z,1019.92
2017-03-11T05:00:40.924Z,1019.95
2017-03-11T05:01:21.591Z,1019.94
2017-03-11T05:02:02.262Z,1019.99
2017-03-11T05:02:42.935Z,1019.98
2017-03-11T05:03:23.638Z,1020
2017-03-11T05:04:04.349Z,1020.01
2017-03-11T05:04:44.968Z,1020.04
2017-03-11T05:05:25.642Z,1020.03
2017-03-11T05:06:06.263Z,1020.07
2017-03-11T05:06:46.891Z,1020.08
2017-03-11T05:07:27.610Z,1020.08
2017-03-11T05:08:08.251Z,1020.08
2017-03-11T05:08:48.930Z,1020.06
2017-03-11T05:09:29.608Z,1020.11
2017-03-11T05:10:10.316Z,1020.1
2017-03-11T05:10:50.981Z,1020.1
2017-03-11T05:11:31.634Z,1020.1
2017-03-11T05:12:12.292Z,1020.06
2017-03-11T05:12:52.909Z,1020.11
2017-03-11T05:13:33.571Z,1020.06
2017-03-11T05:14:14.250Z,1020.06
2017-03-11T05:14:54.927Z,1020.12
2017-03-11T05:15:35.564Z,1020.06
2017-03-11T05:16:16.190Z,1020.02
2017-03-11T05:16:56.866Z,1020
2017-03-11T05:17:37.516Z,1019.99
2017-03-11T05:18:18.150Z,1019.99
2017-03-11T05:18:58.883Z,1019.95
2017-03-11T05:19:39.568Z,1020
2017-03-11T05:20:20.215Z,1020.06
2017-03-11T05:21:00.884Z,1020.04
2017-03-11T05:21:41.529Z,1020.06
2017-03-11T05:22:22.144Z,1020.07
2017-03-11T05:23:02.819Z,1020.11
2017-03-11T05:23:43.475Z,1020.07
2017-03-11T05:24:24.108Z,1020.08
2017-03-11T05:25:04.743Z,1020.1
2017-03-11T05:25:45.411Z,1020.1
2017-03-11T05:26:26.048Z,1020.11
2017-03-11T05:27:06.733Z,1020.14
2017-03-11T05:27:47.352Z,1020.17
2017-03-11T05:28:27.998Z,1020.18
2017-03-11T05:29:08.660Z,1020.15
2017-03-11T05:29:49.282Z,1020.13
2017-03-11T05:30:29.931Z,1020.19
2017-03-11T05:31:10.577Z,1020.2
2017-03-11T05:31:51.206Z,1020.23
2017-03-11T05:32:31.878Z,1020.21
2017-03-11T05:33:12.500Z,1020.2
2017-03-11T05:33:53.173Z,1020.16
2017-03-11T05:34:33.859Z,1020.14
2017-03-11T05:35:14.476Z,1020.18
2017-03-11T05:35:55.123Z,1020.18
2017-03-11T05:36:35.810Z,1020.23
2017-03-11T05:37:16.451Z,1020.19
2017-03-11T05:37:57.081Z,1020.22
2017-03-11T05:38:37.718Z,1020.18
2017-03-11T05:39:18.347Z,1020.24
2017-03-11T05:39:59.013Z,1020.22
2017-03-11T05:40:39.649Z,1020.22
2017-03-11T05:41:20.284Z,1020.19
2017-03-11T05:42:00.975Z,1020.22
2017-03-11T05:42:41.621Z,1020.2
2017-03-11T05:43:22.272Z,1020.17
2017-03-11T05:44:02.905Z,1020.14
2017-03-11T05:44:43.578Z,1020.14
2017-03-11T05:45:24.269Z,1020.16
2017-03-11T05:46:04.928Z,1020.17
2017-03-11T05:46:45.549Z,1020.15
2017-03-11T05:47:26.196Z,1020.15
2017-03-11T05:48:06.888Z,1020.17
2017-03-11T05:48:47.551Z,1020.16
2017-03-11T05:49:28.189Z,1020.17
2017-03-11T05:50:08.842Z,1020.17
2017-03-11T05:50:49.474Z,1020.14
2017-03-11T05:51:30.106Z,1020.13
2017-03-11T05:52:10.757Z,1020.11
2017-03-11T05:52:51.376Z,1020.13
2017-03-11T05:53:31.999Z,1020.1
2017-03-11T05:54:12.627Z,1020.08
2017-03-11T05:54:53.281Z,1020.13
2017-03-11T05:55:33.917Z,1020.11
2017-03-11T05:56:14.805Z,1020.14
2017-03-11T05:56:55.334Z,1020.2
2017-03-11T05:57:41.120Z,1020.16
2017-03-11T05:58:30.890Z,1020.26
2017-03-11T05:59:20.044Z,1020.29
2017-03-11T06:00:05.170Z,1020.33
2017-03-11T06:00:51.272Z,1020.36
2017-03-11T06:01:49.829Z,1020.38
2017-03-11T06:02:43.166Z,1020.34
2017-03-11T06:03:25.523Z,1020.31
2017-03-11T06:04:07.101Z,1020.31
2017-03-11T06:04:47.732Z,1020.26
2017-03-11T06:05:28.629Z,1020.25
2017-03-11T06:06:09.476Z,1020.21
2017-03-11T06:06:50.404Z,1020.2
2017-03-11T06:07:31.383Z,1020.21
2017-03-11T06:08:12.001Z,1020.2
2017-03-11T06:08:52.711Z,1020.19
2017-03-11T06:09:33.593Z,1020.23
2017-03-11T06:10:14.471Z,1020.27
2017-03-11T06:10:55.350Z,1020.23
2017-03-11T06:11:35.964Z,1020.22
2017-03-11T06:12:16.747Z,1020.22
2017-03-11T06:12:57.756Z,1020.24
2017-03-11T06:13:38.845Z,1020.24
2017-03-11T06:14:33.479Z,1020.22
2017-03-11T06:15:17.124Z,1020.23
2017-03-11T06:15:58.517Z,1020.28
2017-03-11T06:16:39.815Z,1020.25
2017-03-11T06:17:20.491Z,1020.27
2017-03-11T06:18:01.220Z,1020.23
2017-03-11T06:18:41.845Z,1020.25
2017-03-11T06:19:24.048Z,1020.19
2017-03-11T06:20:08.604Z,1020.22
2017-03-11T06:20:51.542Z,1020.23
2017-03-11T06:21:34.674Z,1020.19
2017-03-11T06:22:20.762Z,1020.23
2017-03-11T06:23:01.387Z,1020.19
2017-03-11T06:23:42.213Z,1020.22
2017-03-11T06:24:22.862Z,1020.25
2017-03-11T06:25:03.544Z,1020.22
2017-03-11T06:25:44.337Z,1020.25
2017-03-11T06:26:24.969Z,1020.23
2017-03-11T06:27:06.001Z,1020.28
2017-03-11T06:27:46.649Z,1020.3
2017-03-11T06:28:28.075Z,1020.32
2017-03-11T06:29:14.024Z,1020.3
2017-03-11T06:30:06.084Z,1020.29
2017-03-11T06:30:59.094Z,1020.25
2017-03-11T06:31:51.204Z,1020.28
2017-03-11T06:32:38.619Z,1020.28
2017-03-11T06:33:25.778Z,1020.24
2017-03-11T06:34:06.443Z,1020.24
2017-03-11T06:34:47.075Z,1020.27
2017-03-11T06:35:27.703Z,1020.24
2017-03-11T06:36:08.338Z,1020.26
2017-03-11T06:36:48.951Z,1020.27
2017-03-11T06:37:29.663Z,1020.31
2017-03-11T06:38:11.878Z,1020.31
2017-03-11T06:38:55.329Z,1020.32
2017-03-11T06:39:35.942Z,1020.33
2017-03-11T06:40:16.557Z,1020.35
2017-03-11T06:40:57.222Z,1020.36
2017-03-11T06:41:37.827Z,1020.32
2017-03-11T06:42:19.217Z,1020.36
2017-03-11T06:42:59.853Z,1020.34
2017-03-11T06:43:40.502Z,1020.35
2017-03-11T06:44:21.110Z,1020.33
2017-03-11T06:45:01.713Z,1020.36
2017-03-11T06:45:42.322Z,1020.32
2017-03-11T06:46:22.946Z,1020.36
2017-03-11T06:47:03.566Z,1020.34
2017-03-11T06:47:44.178Z,1020.34
2017-03-11T06:48:24.796Z,1020.37
2017-03-11T06:49:05.523Z,1020.34
2017-03-11T06:49:46.123Z,1020.3
2017-03-11T06:50:26.742Z,1020.29
2017-03-11T06:51:07.346Z,1020.31
2017-03-11T06:51:47.992Z,1020.33
2017-03-11T06:52:28.641Z,1020.36
2017-03-11T06:53:09.288Z,1020.32
2017-03-11T06:53:49.992Z,1020.38
2017-03-11T06:54:31.665Z,1020.37
2017-03-11T06:55:12.321Z,1020.42
2017-03-11T06:55:52.982Z,1020.43
2017-03-11T06:56:33.624Z,1020.46
2017-03-11T06:57:14.253Z,1020.49
2017-03-11T06:57:54.863Z,1020.47
2017-03-11T06:58:35.567Z,1020.51
2017-03-11T06:59:16.157Z,1020.49
2017-03-11T06:59:56.858Z,1020.47
2017-03-11T07:00:37.424Z,1020.47
2017-03-11T07:01:18.045Z,1020.47
2017-03-11T07:01:59.011Z,1020.46
2017-03-11T07:02:39.387Z,1020.43
2017-03-11T07:03:20.153Z,1020.43
2017-03-11T07:04:00.858Z,1020.39
2017-03-11T07:04:41.553Z,1020.38
2017-03-11T07:05:22.171Z,1020.33
2017-03-11T07:06:02.874Z,1020.33
2017-03-11T07:06:43.434Z,1020.28
2017-03-11T07:07:24.052Z,1020.33
2017-03-11T07:08:04.651Z,1020.31
2017-03-11T07:08:45.281Z,1020.28
2017-03-11T07:09:26.141Z,1020.27
2017-03-11T07:10:06.814Z,1020.34
2017-03-11T07:10:47.576Z,1020.36
2017-03-11T07:11:28.559Z,1020.39
2017-03-11T07:12:09.487Z,1020.44
2017-03-11T07:12:50.189Z,1020.47
2017-03-11T07:13:30.907Z,1020.47
2017-03-11T07:14:12.003Z,1020.46
2017-03-11T07:14:53.012Z,1020.49
2017-03-11T07:15:33.941Z,1020.47
2017-03-11T07:16:14.790Z,1020.45
2017-03-11T07:16:55.400Z,1020.43
2017-03-11T07:17:36.025Z,1020.45
2017-03-11T07:18:16.743Z,1020.48
2017-03-11T07:18:57.370Z,1020.46
2017-03-11T07:19:39.765Z,1020.44
2017-03-11T07:20:21.650Z,1020.46
2017-03-11T07:21:10.466Z,1020.5
2017-03-11T07:21:55.759Z,1020.54
2017-03-11T07:22:47.719Z,1020.53
2017-03-11T07:23:28.734Z,1020.54
2017-03-11T07:24:10.309Z,1020.55
2017-03-11T07:24:50.968Z,1020.55
2017-03-11T07:25:31.606Z,1020.55
2017-03-11T07:26:12.248Z,1020.56
2017-03-11T07:26:55.174Z,1020.52
2017-03-11T07:27:40.667Z,1020.54
2017-03-11T07:28:21.341Z,1020.54
2017-03-11T07:29:02.037Z,1020.55
2017-03-11T07:29:42.662Z,1020.47
2017-03-11T07:30:23.304Z,1020.55
2017-03-11T07:31:03.932Z,1020.53
2017-03-11T07:31:44.583Z,1020.53
2017-03-11T07:32:25.333Z,1020.51
2017-03-11T07:33:06.003Z,1020.51
2017-03-11T07:33:46.606Z,1020.49
2017-03-11T07:34:27.288Z,1020.47
2017-03-11T07:35:08.026Z,1020.45
2017-03-11T07:35:48.672Z,1020.43
2017-03-11T07:36:29.375Z,1020.46
2017-03-11T07:37:10.073Z,1020.43
2017-03-11T07:37:50.747Z,1020.41
2017-03-11T07:38:31.374Z,1020.4
2017-03-11T07:39:12.103Z,1020.38
2017-03-11T07:39:52.740Z,1020.39
2017-03-11T07:40:33.419Z,1020.35
2017-03-11T07:41:14.084Z,1020.29
2017-03-11T07:41:54.808Z,1020.33
2017-03-11T07:42:35.565Z,1020.32
2017-03-11T07:43:16.213Z,1020.34
2017-03-11T07:43:56.932Z,1020.38
2017-03-11T07:44:37.617Z,1020.37
2017-03-11T07:45:18.245Z,1020.35
2017-03-11T07:45:58.975Z,1020.37
2017-03-11T07:46:39.730Z,1020.34
2017-03-11T07:47:20.403Z,1020.37
2017-03-11T07:48:01.109Z,1020.31
2017-03-11T07:48:41.815Z,1020.33
2017-03-11T07:49:22.487Z,1020.34
2017-03-11T07:50:03.127Z,1020.35
2017-03-11T07:50:43.741Z,1020.37
2017-03-11T07:51:24.511Z,1020.39
2017-03-11T07:52:05.196Z,1020.4
2017-03-11T07:52:45.906Z,1020.38
2017-03-11T07:53:26.596Z,1020.41
2017-03-11T07:54:07.247Z,1020.4
2017-03-11T07:54:47.941Z,1020.41
2017-03-11T07:55:28.576Z,1020.43
2017-03-11T07:56:09.425Z,1020.41
2017-03-11T07:56:50.135Z,1020.4
2017-03-11T07:57:30.773Z,1020.39
2017-03-11T07:58:11.546Z,1020.41
2017-03-11T07:58:52.332Z,1020.42
2017-03-11T07:59:32.988Z,1020.4
2017-03-11T08:00:13.655Z,1020.38
2017-03-11T08:00:54.355Z,1020.36
2017-03-11T08:01:35.084Z,1020.39
2017-03-11T08:02:15.865Z,1020.35
2017-03-11T08:02:56.521Z,1020.34
2017-03-11T08:03:37.158Z,1020.37
2017-03-11T08:04:18.079Z,1020.37
2017-03-11T08:04:59.288Z,1020.36
2017-03-11T08:05:44.148Z,1020.35
2017-03-11T08:06:24.847Z,1020.32
2017-03-11T08:07:05.533Z,1020.32
2017-03-11T08:07:46.387Z,1020.28
2017-03-11T08:08:27.018Z,1020.3
2017-03-11T08:09:07.654Z,1020.35
2017-03-11T08:09:48.388Z,1020.36
2017-03-11T08:10:30.194Z,1020.31
2017-03-11T08:11:13.087Z,1020.33
2017-03-11T08:11:55.015Z,1020.34
2017-03-11T08:12:35.714Z,1020.32
2017-03-11T08:13:16.367Z,1020.35
2017-03-11T08:13:57.025Z,1020.35
2017-03-11T08:14:37.623Z,1020.35
2017-03-11T08:15:18.754Z,1020.33
2017-03-11T08:15:59.496Z,1020.38
2017-03-11T08:16:42.143Z,1020.4